Time;durP1;ratioP1;P1;durP2;ratioP2;P2;SDS_P1;SDS_P2;PMS_P1;PMS_P2;Temp;Humidity;BMP_temperature;BMP_pressure;BME280_temperature;BME280_humidity;BME280_pressure;Samples;Min_cycle;Max_cycle;Signal;HPM_P1;HPM_P2
2023/04/30 00:00:53;;;;;;;;;;;10.70;99.90;;;;;;5050201;28;20383;-63
2023/04/30 00:03:24;;;;;;;;;;;10.70;99.90;;;;;;5061660;28;19947;-64
2023/04/30 00:05:56;;;;;;;;;;;10.70;99.90;;;;;;5060486;28;19964;-63
2023/04/30 00:08:29;;;;;;;;;;;10.70;99.90;;;;;;5038434;28;19925;-63
2023/04/30 00:11:00;;;;;;;;;;;10.70;99.90;;;;;;5057375;28;19935;-63
2023/04/30 00:13:32;;;;;;;;;;;10.60;99.90;;;;;;5059817;28;19979;-63
2023/04/30 00:16:04;;;;;;;;;;;10.60;99.90;;;;;;5062845;28;19928;-63
2023/04/30 00:18:31;;;;;;;;;;;10.60;99.90;;;;;;5060410;28;20456;-63
2023/04/30 00:21:03;;;;;;;;;;;10.50;99.90;;;;;;5066515;28;19929;-63
2023/04/30 00:23:34;;;;;;;;;;;10.60;99.90;;;;;;5068805;28;19924;-63
2023/04/30 00:26:06;;;;;;;;;;;10.60;99.90;;;;;;5068806;28;20363;-63
2023/04/30 00:28:39;;;;;;;;;;;10.60;99.90;;;;;;5061761;28;19930;-63
2023/04/30 00:31:11;;;;;;;;;;;10.50;99.90;;;;;;5055148;28;19990;-63
2023/04/30 00:33:42;;;;;;;;;;;10.60;99.90;;;;;;5034918;28;19932;-63
2023/04/30 00:36:14;;;;;;;;;;;10.60;99.90;;;;;;5041488;28;19929;-63
2023/04/30 00:38:46;;;;;;;;;;;10.50;99.90;;;;;;5047818;28;19924;-63
2023/04/30 00:41:18;;;;;;;;;;;10.50;99.90;;;;;;5045533;28;19959;-63
2023/04/30 00:43:49;;;;;;;;;;;10.50;99.90;;;;;;5045605;28;19932;-63
2023/04/30 00:46:21;;;;;;;;;;;10.40;99.90;;;;;;5052884;28;20386;-63
2023/04/30 00:48:52;;;;;;;;;;;10.40;99.90;;;;;;5069772;28;20436;-63
2023/04/30 00:51:25;;;;;;;;;;;10.40;99.90;;;;;;5052923;28;20557;-63
2023/04/30 00:53:59;;;;;;;;;;;10.40;99.90;;;;;;5036605;28;19932;-63
2023/04/30 00:56:31;;;;;;;;;;;10.40;99.90;;;;;;5031094;28;19924;-63
2023/04/30 00:59:02;;;;;;;;;;;10.40;99.90;;;;;;5057956;28;19928;-63
2023/04/30 01:01:34;;;;;;;;;;;10.30;99.90;;;;;;5046966;28;19928;-63
2023/04/30 01:04:05;;;;;;;;;;;10.30;99.90;;;;;;5031605;28;20022;-63
2023/04/30 01:06:37;;;;;;;;;;;10.30;99.90;;;;;;5063343;28;19931;-63
2023/04/30 01:09:09;;;;;;;;;;;10.30;99.90;;;;;;5065524;28;19928;-63
2023/04/30 01:11:39;;;;;;;;;;;10.30;99.90;;;;;;5061480;28;19929;-63
2023/04/30 01:14:30;;;;;;;;;;;10.30;99.90;;;;;;5046937;28;19928;-63
2023/04/30 01:17:05;;;;;;;;;;;10.30;99.90;;;;;;5046195;28;20034;-63
2023/04/30 01:19:41;;;;;;;;;;;10.30;99.90;;;;;;5047254;28;19960;-63
2023/04/30 01:22:25;;;;;;;;;;;10.20;99.90;;;;;;5044007;28;19928;-63
2023/04/30 01:24:56;;;;;;;;;;;10.20;99.90;;;;;;5058100;28;20158;-63
2023/04/30 01:27:30;;;;;;;;;;;10.20;99.90;;;;;;5048809;28;19955;-64
2023/04/30 01:30:03;;;;;;;;;;;10.20;99.90;;;;;;5063447;28;19929;-63
2023/04/30 01:32:35;;;;;;;;;;;10.20;99.90;;;;;;5052071;28;19925;-63
2023/04/30 01:35:07;;;;;;;;;;;10.20;99.90;;;;;;5059743;28;19932;-63
2023/04/30 01:37:46;;;;;;;;;;;10.30;99.90;;;;;;5060522;28;20360;-63
2023/04/30 01:40:21;;;;;;;;;;;10.30;99.90;;;;;;5047540;28;19935;-63
2023/04/30 01:43:11;;;;;;;;;;;10.30;99.90;;;;;;5043165;28;19924;-63
2023/04/30 01:46:02;;;;;;;;;;;10.40;99.90;;;;;;5045076;28;19929;-63
2023/04/30 01:48:49;;;;;;;;;;;10.30;99.90;;;;;;5042093;28;20047;-63
2023/04/30 01:51:29;;;;;;;;;;;10.40;99.90;;;;;;5058516;28;19924;-63
2023/04/30 01:54:21;;;;;;;;;;;10.40;99.90;;;;;;5046103;28;19928;-63
2023/04/30 01:57:02;;;;;;;;;;;10.40;99.90;;;;;;5034792;28;19925;-65
2023/04/30 01:59:37;;;;;;;;;;;10.40;99.90;;;;;;5062693;28;19928;-63
2023/04/30 02:02:08;;;;;;;;;;;10.40;99.90;;;;;;5042887;28;19932;-63
2023/04/30 02:04:40;;;;;;;;;;;10.50;99.90;;;;;;5051613;28;19929;-63
2023/04/30 02:07:19;;;;;;;;;;;10.40;99.90;;;;;;5043946;28;19931;-63
2023/04/30 02:09:51;;;;;;;;;;;10.40;99.90;;;;;;5027487;28;20005;-63
2023/04/30 02:12:23;;;;;;;;;;;10.50;99.90;;;;;;5043263;28;19928;-64
2023/04/30 02:14:54;;;;;;;;;;;10.40;99.90;;;;;;5047905;28;20000;-63
2023/04/30 02:17:26;;;;;;;;;;;10.40;99.90;;;;;;5050282;28;19924;-63
2023/04/30 02:19:58;;;;;;;;;;;10.30;99.90;;;;;;5051140;28;19936;-63
2023/04/30 02:22:30;;;;;;;;;;;10.30;99.90;;;;;;5047961;28;19958;-63
2023/04/30 02:25:02;;;;;;;;;;;10.30;99.90;;;;;;5044717;28;20304;-63
2023/04/30 02:27:34;;;;;;;;;;;10.30;99.90;;;;;;5034800;28;19932;-64
2023/04/30 02:30:06;;;;;;;;;;;10.30;99.90;;;;;;5053942;28;19929;-63
2023/04/30 02:32:38;;;;;;;;;;;10.30;99.90;;;;;;5057415;28;19940;-63
2023/04/30 02:35:10;;;;;;;;;;;10.30;99.90;;;;;;5061051;28;19935;-63
2023/04/30 02:37:42;;;;;;;;;;;10.30;99.90;;;;;;5042777;28;19975;-63
2023/04/30 02:40:14;;;;;;;;;;;10.30;99.90;;;;;;5043026;28;20405;-63
2023/04/30 02:42:45;;;;;;;;;;;10.40;99.90;;;;;;5064476;28;19935;-63
2023/04/30 02:45:17;;;;;;;;;;;10.30;99.90;;;;;;5052185;28;19925;-63
2023/04/30 02:47:43;;;;;;;;;;;10.30;99.90;;;;;;5040567;28;19936;-63
2023/04/30 02:50:15;;;;;;;;;;;10.30;99.90;;;;;;5043226;28;19929;-63
2023/04/30 02:52:47;;;;;;;;;;;10.30;99.90;;;;;;5033735;28;19932;-63
2023/04/30 02:55:19;;;;;;;;;;;10.30;99.90;;;;;;5045701;28;19968;-63
2023/04/30 02:57:51;;;;;;;;;;;10.30;99.90;;;;;;5042653;28;20015;-63
2023/04/30 03:00:18;;;;;;;;;;;10.30;99.90;;;;;;5047919;28;19925;-63
2023/04/30 03:02:50;;;;;;;;;;;10.30;99.90;;;;;;5048993;28;19978;-63
2023/04/30 03:05:22;;;;;;;;;;;10.30;99.90;;;;;;5050785;28;19928;-63
2023/04/30 03:07:54;;;;;;;;;;;10.30;99.90;;;;;;5033666;28;19936;-64
2023/04/30 03:10:26;;;;;;;;;;;10.30;99.90;;;;;;5051824;28;19928;-63
2023/04/30 03:12:58;;;;;;;;;;;10.20;99.90;;;;;;5041142;28;19952;-63
2023/04/30 03:15:31;;;;;;;;;;;10.20;99.90;;;;;;5041349;28;19928;-63
2023/04/30 03:18:03;;;;;;;;;;;10.20;99.90;;;;;;5022447;28;20041;-63
2023/04/30 03:20:34;;;;;;;;;;;10.20;99.90;;;;;;5044047;28;20044;-63
2023/04/30 03:23:06;;;;;;;;;;;10.20;99.90;;;;;;5049304;28;19933;-63
2023/04/30 03:25:38;;;;;;;;;;;10.20;99.90;;;;;;5063155;28;19932;-63
2023/04/30 03:28:09;;;;;;;;;;;10.20;99.90;;;;;;5037445;28;19951;-63
2023/04/30 03:30:41;;;;;;;;;;;10.20;99.90;;;;;;5048911;28;19928;-64
2023/04/30 03:33:12;;;;;;;;;;;10.20;99.90;;;;;;5038342;28;19932;-63
2023/04/30 03:35:44;;;;;;;;;;;10.20;99.90;;;;;;5041824;28;20312;-63
2023/04/30 03:38:16;;;;;;;;;;;10.20;99.90;;;;;;5039848;28;20415;-63
2023/04/30 03:40:48;;;;;;;;;;;10.20;99.90;;;;;;5045516;28;19929;-63
2023/04/30 03:43:20;;;;;;;;;;;10.20;99.90;;;;;;5044194;28;19925;-63
2023/04/30 03:45:52;;;;;;;;;;;10.20;99.90;;;;;;5051713;28;19936;-63
2023/04/30 03:48:24;;;;;;;;;;;10.20;99.90;;;;;;5053090;28;20459;-63
2023/04/30 03:50:50;;;;;;;;;;;10.20;99.90;;;;;;5050579;28;19924;-63
2023/04/30 03:53:24;;;;;;;;;;;10.20;99.90;;;;;;5055744;28;19952;-63
2023/04/30 03:55:56;;;;;;;;;;;10.20;99.90;;;;;;5037500;28;20015;-63
2023/04/30 03:58:28;;;;;;;;;;;10.20;99.90;;;;;;5041540;28;19931;-63
2023/04/30 04:01:00;;;;;;;;;;;10.20;99.90;;;;;;5029300;28;19931;-63
2023/04/30 04:03:33;;;;;;;;;;;10.20;99.90;;;;;;5035934;28;19953;-63
2023/04/30 04:06:05;;;;;;;;;;;10.20;99.90;;;;;;5032046;28;20023;-63
2023/04/30 04:08:36;;;;;;;;;;;10.20;99.90;;;;;;5063600;28;20420;-63
2023/04/30 04:11:09;;;;;;;;;;;10.20;99.90;;;;;;5047783;28;19924;-63
2023/04/30 04:13:40;;;;;;;;;;;10.10;99.90;;;;;;5047470;28;19936;-63
2023/04/30 04:16:12;;;;;;;;;;;10.10;99.90;;;;;;5055340;28;19946;-63
2023/04/30 04:18:44;;;;;;;;;;;10.10;99.90;;;;;;5055812;28;19925;-63
2023/04/30 04:21:16;;;;;;;;;;;10.10;99.90;;;;;;5036748;28;19924;-63
2023/04/30 04:23:48;;;;;;;;;;;10.10;99.90;;;;;;5044816;28;19929;-63
2023/04/30 04:26:20;;;;;;;;;;;10.10;99.90;;;;;;5042162;28;19972;-63
2023/04/30 04:28:52;;;;;;;;;;;10.10;99.90;;;;;;5051718;28;20445;-63
2023/04/30 04:31:23;;;;;;;;;;;10.10;99.90;;;;;;5051083;28;19956;-63
2023/04/30 04:33:57;;;;;;;;;;;10.10;99.90;;;;;;5052002;28;19928;-63
2023/04/30 04:36:29;;;;;;;;;;;10.10;99.90;;;;;;5054575;28;20355;-63
2023/04/30 04:39:01;;;;;;;;;;;10.10;99.90;;;;;;5032850;28;19932;-63
2023/04/30 04:41:28;;;;;;;;;;;10.10;99.90;;;;;;5027816;28;20324;-63
2023/04/30 04:44:02;;;;;;;;;;;10.10;99.90;;;;;;5036681;28;19931;-63
2023/04/30 04:46:34;;;;;;;;;;;10.10;99.90;;;;;;5055961;28;19924;-63
2023/04/30 04:49:06;;;;;;;;;;;10.20;99.90;;;;;;5029958;28;19937;-63
2023/04/30 04:51:38;;;;;;;;;;;10.10;99.90;;;;;;5035697;28;20019;-63
2023/04/30 04:54:10;;;;;;;;;;;10.10;99.90;;;;;;5062259;28;20389;-63
2023/04/30 04:56:42;;;;;;;;;;;10.10;99.90;;;;;;5043534;28;19978;-63
2023/04/30 04:59:15;;;;;;;;;;;10.20;99.90;;;;;;5048037;28;19930;-63
2023/04/30 05:01:48;;;;;;;;;;;10.10;99.90;;;;;;5052677;28;19931;-63
2023/04/30 05:04:19;;;;;;;;;;;10.20;99.90;;;;;;5028891;28;20312;-63
2023/04/30 05:06:51;;;;;;;;;;;10.20;99.90;;;;;;5053859;28;19939;-63
2023/04/30 05:09:23;;;;;;;;;;;10.20;99.90;;;;;;5039592;28;20350;-62
2023/04/30 05:11:50;;;;;;;;;;;10.20;99.90;;;;;;5050278;28;20316;-63
2023/04/30 05:14:21;;;;;;;;;;;10.20;99.90;;;;;;5060749;28;20363;-63
2023/04/30 05:16:53;;;;;;;;;;;10.30;99.90;;;;;;5061120;28;19972;-63
2023/04/30 05:19:25;;;;;;;;;;;10.30;99.90;;;;;;5064269;28;19924;-63
2023/04/30 05:21:56;;;;;;;;;;;10.30;99.90;;;;;;5050698;28;19983;-63
2023/04/30 05:24:28;;;;;;;;;;;10.30;99.90;;;;;;5068149;28;19935;-63
2023/04/30 05:27:01;;;;;;;;;;;10.30;99.90;;;;;;5043721;28;19925;-65
2023/04/30 05:29:28;;;;;;;;;;;10.30;99.90;;;;;;5057241;28;20472;-65
2023/04/30 05:32:00;;;;;;;;;;;10.30;99.90;;;;;;5054430;28;20081;-63
2023/04/30 05:34:32;;;;;;;;;;;10.30;99.90;;;;;;5047419;28;19928;-63
2023/04/30 05:37:03;;;;;;;;;;;10.30;99.90;;;;;;5060597;28;19929;-63
2023/04/30 05:39:35;;;;;;;;;;;10.30;99.90;;;;;;5060812;28;20019;-63
2023/04/30 05:42:02;;;;;;;;;;;10.30;99.90;;;;;;5062942;28;19971;-63
2023/04/30 05:44:33;;;;;;;;;;;10.40;99.90;;;;;;5065263;28;19924;-63
2023/04/30 05:47:05;;;;;;;;;;;10.40;99.90;;;;;;5053528;28;19974;-63
2023/04/30 05:49:37;;;;;;;;;;;10.40;99.90;;;;;;5055508;28;19928;-63
2023/04/30 05:52:08;;;;;;;;;;;10.50;99.90;;;;;;5053536;28;19971;-63
2023/04/30 05:54:40;;;;;;;;;;;10.40;99.90;;;;;;5059913;28;19924;-63
2023/04/30 05:57:12;;;;;;;;;;;10.50;99.90;;;;;;5061850;28;19972;-64
2023/04/30 05:59:43;;;;;;;;;;;10.50;99.90;;;;;;5067529;28;19977;-63
2023/04/30 06:02:15;;;;;;;;;;;10.50;99.90;;;;;;5065897;28;20416;-63
2023/04/30 06:04:46;;;;;;;;;;;10.50;99.90;;;;;;5064736;28;19924;-64
2023/04/30 06:07:18;;;;;;;;;;;10.50;99.90;;;;;;5066777;28;19925;-63
2023/04/30 06:09:45;;;;;;;;;;;10.60;99.90;;;;;;5069163;28;19935;-63
2023/04/30 06:12:16;;;;;;;;;;;10.70;99.90;;;;;;5062255;28;19978;-64
2023/04/30 06:14:48;;;;;;;;;;;10.70;99.90;;;;;;5065696;28;19928;-64
2023/04/30 06:17:20;;;;;;;;;;;10.80;99.90;;;;;;5049747;28;19978;-64
2023/04/30 06:19:51;;;;;;;;;;;10.80;99.90;;;;;;5064724;28;19936;-64
2023/04/30 06:22:23;;;;;;;;;;;10.90;99.90;;;;;;5063731;28;20397;-64
2023/04/30 06:24:50;;;;;;;;;;;11.00;99.90;;;;;;5065092;28;19936;-64
2023/04/30 06:27:22;;;;;;;;;;;11.10;99.90;;;;;;5063684;28;19925;-64
2023/04/30 06:29:54;;;;;;;;;;;11.10;99.90;;;;;;5062962;28;19932;-63
2023/04/30 06:32:25;;;;;;;;;;;11.20;99.90;;;;;;5064071;28;19928;-63
2023/04/30 06:34:57;;;;;;;;;;;11.30;99.90;;;;;;5061706;28;19932;-63
2023/04/30 06:37:29;;;;;;;;;;;11.30;99.90;;;;;;5037407;28;19925;-63
2023/04/30 06:40:01;;;;;;;;;;;11.40;99.90;;;;;;5052214;28;19925;-63
2023/04/30 06:42:34;;;;;;;;;;;11.40;99.90;;;;;;5041424;28;19974;-64
2023/04/30 06:45:05;;;;;;;;;;;11.50;99.90;;;;;;5059919;28;19935;-64
2023/04/30 06:47:36;;;;;;;;;;;11.50;99.90;;;;;;5058633;28;19924;-63
2023/04/30 06:50:08;;;;;;;;;;;11.60;99.90;;;;;;5062473;28;19931;-63
2023/04/30 06:52:35;;;;;;;;;;;11.60;99.90;;;;;;5062837;28;19928;-64
2023/04/30 06:55:08;;;;;;;;;;;11.70;99.90;;;;;;5059727;28;19929;-64
2023/04/30 06:57:39;;;;;;;;;;;11.70;99.90;;;;;;5055476;28;19932;-64
2023/04/30 07:00:13;;;;;;;;;;;11.70;99.90;;;;;;5056411;28;19928;-63
2023/04/30 07:02:40;;;;;;;;;;;11.80;99.90;;;;;;5054482;28;19925;-63
2023/04/30 07:05:12;;;;;;;;;;;11.90;99.90;;;;;;5040536;28;19936;-63
2023/04/30 07:07:44;;;;;;;;;;;11.90;99.90;;;;;;5045189;28;20526;-64
2023/04/30 07:10:17;;;;;;;;;;;12.00;99.90;;;;;;5060707;28;19932;-64
2023/04/30 07:12:48;;;;;;;;;;;12.00;99.90;;;;;;5061776;28;20348;-64
2023/04/30 07:15:20;;;;;;;;;;;12.10;99.90;;;;;;5062955;28;19928;-63
2023/04/30 07:17:52;;;;;;;;;;;12.20;99.90;;;;;;5050346;28;19925;-64
2023/04/30 07:20:19;;;;;;;;;;;12.30;99.90;;;;;;5062310;28;20008;-63
2023/04/30 07:22:50;;;;;;;;;;;12.50;99.90;;;;;;5064639;28;19936;-64
2023/04/30 07:25:17;;;;;;;;;;;12.50;99.90;;;;;;5064424;28;19924;-64
2023/04/30 07:27:50;;;;;;;;;;;12.70;99.90;;;;;;5062894;28;19929;-63
2023/04/30 07:30:21;;;;;;;;;;;12.70;99.90;;;;;;5044874;28;19924;-64
2023/04/30 07:32:53;;;;;;;;;;;12.80;99.90;;;;;;5061003;28;19924;-63
2023/04/30 07:35:25;;;;;;;;;;;12.80;99.90;;;;;;5031462;28;19932;-64
2023/04/30 07:37:56;;;;;;;;;;;12.90;99.90;;;;;;5065721;28;19928;-64
2023/04/30 07:40:23;;;;;;;;;;;13.00;99.90;;;;;;5050385;28;19928;-63
2023/04/30 07:42:54;;;;;;;;;;;13.10;99.90;;;;;;5063226;28;20400;-64
2023/04/30 07:45:26;;;;;;;;;;;13.20;99.90;;;;;;5048756;28;19928;-63
2023/04/30 07:47:58;;;;;;;;;;;13.30;99.90;;;;;;5058436;28;20400;-63
2023/04/30 07:50:27;;;;;;;;;;;13.50;99.90;;;;;;5047735;28;19925;-64
2023/04/30 07:52:59;;;;;;;;;;;13.50;99.90;;;;;;5066594;28;19971;-64
2023/04/30 07:55:26;;;;;;;;;;;13.50;99.90;;;;;;5062943;28;20474;-63
2023/04/30 07:57:58;;;;;;;;;;;13.60;99.90;;;;;;5064274;28;19925;-63
2023/04/30 08:00:30;;;;;;;;;;;13.60;99.90;;;;;;5058300;28;19933;-63
2023/04/30 08:03:02;;;;;;;;;;;13.50;99.90;;;;;;5063539;28;19924;-63
2023/04/30 08:05:33;;;;;;;;;;;13.50;99.90;;;;;;5063984;28;19970;-64
2023/04/30 08:08:05;;;;;;;;;;;13.60;99.90;;;;;;5055739;28;19947;-64
2023/04/30 08:10:37;;;;;;;;;;;13.70;99.90;;;;;;5055562;28;20530;-63
2023/04/30 08:13:05;;;;;;;;;;;13.80;99.90;;;;;;5051131;28;19925;-64
2023/04/30 08:15:37;;;;;;;;;;;13.90;99.90;;;;;;5053305;28;20312;-64
2023/04/30 08:18:09;;;;;;;;;;;13.90;99.90;;;;;;5059526;28;19925;-63
2023/04/30 08:20:41;;;;;;;;;;;14.00;99.90;;;;;;5061556;28;19925;-63
2023/04/30 08:23:12;;;;;;;;;;;14.00;99.90;;;;;;5045866;28;19928;-63
2023/04/30 08:25:44;;;;;;;;;;;14.00;99.90;;;;;;5045887;28;19925;-63
2023/04/30 08:28:16;;;;;;;;;;;14.10;99.90;;;;;;5064589;28;19932;-63
2023/04/30 08:30:48;;;;;;;;;;;14.20;99.90;;;;;;5046334;28;20359;-63
2023/04/30 08:33:15;;;;;;;;;;;14.20;99.90;;;;;;5055399;28;19924;-64
2023/04/30 08:35:49;;;;;;;;;;;14.10;99.90;;;;;;5057220;28;20219;-64
2023/04/30 08:38:21;;;;;;;;;;;14.20;99.90;;;;;;5044652;28;19931;-63
2023/04/30 08:41:02;;;;;;;;;;;14.30;99.90;;;;;;5044138;28;20520;-63
2023/04/30 08:43:28;;;;;;;;;;;14.40;99.90;;;;;;5054436;28;20329;-63
2023/04/30 08:46:01;;;;;;;;;;;14.50;99.90;;;;;;5049047;28;19932;-63
2023/04/30 08:48:33;;;;;;;;;;;14.50;99.90;;;;;;5064223;28;20727;-63
2023/04/30 08:51:05;;;;;;;;;;;14.70;99.90;;;;;;5050791;28;19928;-63
2023/04/30 08:53:37;;;;;;;;;;;14.70;99.90;;;;;;5062256;28;20385;-63
2023/04/30 08:56:09;;;;;;;;;;;14.70;99.90;;;;;;5062163;28;20011;-64
2023/04/30 08:58:42;;;;;;;;;;;14.60;99.90;;;;;;5064869;28;19928;-63
2023/04/30 09:01:09;;;;;;;;;;;14.40;99.90;;;;;;5058843;28;19925;-63
2023/04/30 09:03:41;;;;;;;;;;;14.40;99.90;;;;;;5058105;28;20001;-63
2023/04/30 09:06:15;;;;;;;;;;;14.30;99.90;;;;;;5060812;28;19928;-64
2023/04/30 09:08:48;;;;;;;;;;;14.30;99.90;;;;;;5061988;28;19928;-64
2023/04/30 09:11:24;;;;;;;;;;;14.30;99.90;;;;;;5067238;28;19998;-64
2023/04/30 09:13:56;;;;;;;;;;;14.30;99.90;;;;;;5064927;28;19977;-63
2023/04/30 09:16:24;;;;;;;;;;;14.30;99.90;;;;;;5060959;28;20274;-63
2023/04/30 09:18:56;;;;;;;;;;;14.30;99.90;;;;;;5065268;28;20309;-63
2023/04/30 09:21:34;;;;;;;;;;;14.30;99.90;;;;;;5058922;28;19929;-63
2023/04/30 09:24:06;;;;;;;;;;;14.40;99.90;;;;;;5064262;28;19924;-63
2023/04/30 09:26:37;;;;;;;;;;;14.50;99.90;;;;;;5058334;28;19936;-64
2023/04/30 09:29:09;;;;;;;;;;;14.60;99.90;;;;;;5062012;28;20421;-63
2023/04/30 09:31:43;;;;;;;;;;;14.60;99.90;;;;;;5046067;28;19925;-63
2023/04/30 09:34:15;;;;;;;;;;;14.70;99.90;;;;;;5062764;28;20251;-64
2023/04/30 09:36:55;;;;;;;;;;;14.80;99.90;;;;;;5067428;28;19928;-64
2023/04/30 09:39:27;;;;;;;;;;;14.90;99.90;;;;;;5057719;28;20344;-63
2023/04/30 09:42:09;;;;;;;;;;;15.00;99.90;;;;;;5058732;28;20022;-64
2023/04/30 09:44:42;;;;;;;;;;;15.00;99.90;;;;;;5057181;28;20419;-64
2023/04/30 09:47:16;;;;;;;;;;;15.00;99.90;;;;;;5038138;28;19928;-64
2023/04/30 09:49:50;;;;;;;;;;;15.00;99.90;;;;;;5055736;28;19928;-63
2023/04/30 09:52:22;;;;;;;;;;;15.10;99.90;;;;;;5045661;28;19986;-63
2023/04/30 09:54:53;;;;;;;;;;;15.10;99.90;;;;;;5061221;28;19928;-65
2023/04/30 09:57:28;;;;;;;;;;;15.10;99.90;;;;;;5062179;28;19970;-66
2023/04/30 10:00:01;;;;;;;;;;;15.10;99.90;;;;;;5045409;28;19928;-65
2023/04/30 10:02:35;;;;;;;;;;;15.00;99.90;;;;;;5060575;28;19952;-66
2023/04/30 10:05:07;;;;;;;;;;;15.00;99.90;;;;;;5041101;28;19924;-66
2023/04/30 10:07:40;;;;;;;;;;;15.00;99.90;;;;;;5025722;28;19925;-65
2023/04/30 10:10:07;;;;;;;;;;;15.00;99.90;;;;;;5038694;28;19986;-65
2023/04/30 10:12:36;;;;;;;;;;;15.00;99.90;;;;;;5062088;28;20308;-65
2023/04/30 10:15:12;;;;;;;;;;;15.00;99.90;;;;;;5059579;28;19935;-66
2023/04/30 10:17:46;;;;;;;;;;;15.00;99.90;;;;;;5061511;28;19925;-66
2023/04/30 10:20:19;;;;;;;;;;;15.00;99.90;;;;;;5066836;28;19935;-66
2023/04/30 10:22:52;;;;;;;;;;;14.90;99.90;;;;;;5062063;28;19932;-65
2023/04/30 10:25:22;;;;;;;;;;;14.90;99.90;;;;;;5056747;28;19924;-65
2023/04/30 10:27:54;;;;;;;;;;;14.90;99.90;;;;;;5054912;28;19929;-66
2023/04/30 10:30:26;;;;;;;;;;;14.90;99.90;;;;;;5056789;28;20397;-66
2023/04/30 10:33:17;;;;;;;;;;;14.90;99.90;;;;;;5040252;28;19996;-66
2023/04/30 10:35:52;;;;;;;;;;;15.00;99.90;;;;;;5045663;28;20035;-66
2023/04/30 10:38:29;;;;;;;;;;;15.10;99.90;;;;;;5060043;28;20027;-66
2023/04/30 10:41:05;;;;;;;;;;;15.20;99.90;;;;;;5045223;28;20053;-66
2023/04/30 10:43:37;;;;;;;;;;;15.30;99.90;;;;;;5059000;28;20750;-66
2023/04/30 10:46:09;;;;;;;;;;;15.40;99.90;;;;;;5060280;28;20000;-66
2023/04/30 10:48:41;;;;;;;;;;;15.50;99.90;;;;;;5058662;28;19982;-66
2023/04/30 10:51:13;;;;;;;;;;;15.70;99.90;;;;;;5059476;28;19966;-65
2023/04/30 10:53:46;;;;;;;;;;;15.80;99.90;;;;;;5060265;28;19959;-65
2023/04/30 10:56:27;;;;;;;;;;;15.80;99.90;;;;;;5036748;28;19928;-66
2023/04/30 10:59:02;;;;;;;;;;;15.90;99.90;;;;;;5061422;28;19929;-66
2023/04/30 11:01:53;;;;;;;;;;;15.80;99.90;;;;;;5063486;28;19928;-66
2023/04/30 11:04:26;;;;;;;;;;;15.80;99.90;;;;;;5062778;28;20362;-66
2023/04/30 11:07:06;;;;;;;;;;;15.90;99.90;;;;;;5067325;28;19928;-66
2023/04/30 11:09:39;;;;;;;;;;;16.00;99.90;;;;;;5050309;28;19932;-66
2023/04/30 11:12:10;;;;;;;;;;;16.20;99.90;;;;;;5063025;28;19935;-65
2023/04/30 11:14:43;;;;;;;;;;;16.30;99.90;;;;;;5042815;28;19982;-66
2023/04/30 11:17:22;;;;;;;;;;;16.50;99.90;;;;;;5060305;28;19940;-66
2023/04/30 11:19:58;;;;;;;;;;;16.60;99.90;;;;;;5065475;28;19925;-66
2023/04/30 11:22:34;;;;;;;;;;;16.70;99.90;;;;;;5048215;28;19932;-65
2023/04/30 11:25:08;;;;;;;;;;;16.70;99.90;;;;;;5060106;28;19993;-65
2023/04/30 11:27:41;;;;;;;;;;;16.70;99.90;;;;;;5060180;28;19925;-66
2023/04/30 11:30:14;;;;;;;;;;;16.80;99.90;;;;;;5062392;28;19936;-66
2023/04/30 11:32:47;;;;;;;;;;;17.00;99.90;;;;;;5058185;28;19925;-66
2023/04/30 11:35:19;;;;;;;;;;;17.00;99.90;;;;;;5056115;28;19932;-66
2023/04/30 11:37:53;;;;;;;;;;;17.00;99.90;;;;;;5053592;28;19928;-66
2023/04/30 11:40:25;;;;;;;;;;;17.00;99.90;;;;;;5056373;28;19929;-66
2023/04/30 11:42:57;;;;;;;;;;;17.10;99.90;;;;;;5053920;28;19935;-66
2023/04/30 11:45:29;;;;;;;;;;;17.10;99.90;;;;;;5042150;28;19932;-66
2023/04/30 11:48:01;;;;;;;;;;;17.10;99.90;;;;;;5058476;28;20343;-66
2023/04/30 11:50:32;;;;;;;;;;;17.20;99.90;;;;;;5064566;28;19979;-65
2023/04/30 11:53:04;;;;;;;;;;;17.10;99.90;;;;;;5060935;28;19987;-66
2023/04/30 11:55:31;;;;;;;;;;;17.20;99.90;;;;;;5051749;28;19929;-66
2023/04/30 11:58:03;;;;;;;;;;;17.20;99.90;;;;;;5066882;28;19978;-63
2023/04/30 12:00:30;;;;;;;;;;;17.30;99.90;;;;;;5066038;28;19928;-63
2023/04/30 12:03:02;;;;;;;;;;;17.30;99.90;;;;;;5063138;28;19928;-64
2023/04/30 12:05:33;;;;;;;;;;;17.30;99.90;;;;;;5062660;28;19929;-64
2023/04/30 12:08:08;;;;;;;;;;;17.40;99.90;;;;;;5065238;28;19924;-64
2023/04/30 12:10:39;;;;;;;;;;;17.50;99.90;;;;;;5051489;28;19928;-63
2023/04/30 12:13:15;;;;;;;;;;;17.60;99.90;;;;;;5067566;28;19982;-66
2023/04/30 12:15:58;;;;;;;;;;;17.70;99.90;;;;;;5048320;28;19928;-66
2023/04/30 12:18:31;;;;;;;;;;;17.80;99.90;;;;;;5052446;28;20010;-66
2023/04/30 12:21:03;;;;;;;;;;;17.90;99.90;;;;;;5061357;28;19932;-66
2023/04/30 12:23:35;;;;;;;;;;;18.00;99.90;;;;;;5062293;28;19925;-66
2023/04/30 12:26:06;;;;;;;;;;;18.10;99.90;;;;;;5065665;28;19925;-66
2023/04/30 12:28:38;;;;;;;;;;;18.20;99.90;;;;;;5064028;28;19932;-66
2023/04/30 12:31:10;;;;;;;;;;;18.20;99.90;;;;;;5046103;28;19929;-66
2023/04/30 12:33:42;;;;;;;;;;;18.10;99.90;;;;;;5066974;28;19978;-63
2023/04/30 12:36:14;;;;;;;;;;;18.10;99.90;;;;;;5049758;28;20494;-64
2023/04/30 12:38:46;;;;;;;;;;;18.20;99.90;;;;;;5045930;28;19925;-63
2023/04/30 12:41:19;;;;;;;;;;;18.30;99.90;;;;;;5062347;28;19931;-63
2023/04/30 12:44:11;;;;;;;;;;;18.20;99.90;;;;;;5047221;28;19936;-63
2023/04/30 12:46:45;;;;;;;;;;;18.20;99.90;;;;;;5065560;28;20352;-63
2023/04/30 12:49:23;;;;;;;;;;;18.00;99.90;;;;;;5065789;28;19936;-64
2023/04/30 12:51:58;;;;;;;;;;;17.80;99.90;;;;;;5057035;28;20397;-64
2023/04/30 12:54:31;;;;;;;;;;;17.70;99.90;;;;;;5066660;28;19973;-63
2023/04/30 12:57:04;;;;;;;;;;;17.80;99.90;;;;;;5065694;28;19948;-63
2023/04/30 12:59:37;;;;;;;;;;;17.90;99.90;;;;;;5065887;28;20419;-63
2023/04/30 13:02:08;;;;;;;;;;;18.00;99.90;;;;;;5063877;28;19924;-63
2023/04/30 13:04:41;;;;;;;;;;;18.20;99.90;;;;;;5070306;28;19928;-63
2023/04/30 13:07:13;;;;;;;;;;;18.30;99.90;;;;;;5057854;28;19960;-63
2023/04/30 13:09:45;;;;;;;;;;;18.60;99.90;;;;;;5057933;28;20630;-63
2023/04/30 13:12:18;;;;;;;;;;;18.70;99.90;;;;;;5058038;28;19925;-63
2023/04/30 13:14:50;;;;;;;;;;;18.70;99.90;;;;;;5063751;28;19932;-63
2023/04/30 13:17:17;;;;;;;;;;;18.60;99.90;;;;;;5064020;28;19933;-64
2023/04/30 13:19:49;;;;;;;;;;;18.60;99.90;;;;;;5067388;28;19970;-64
2023/04/30 13:22:15;;;;;;;;;;;18.50;99.90;;;;;;5065878;28;19924;-63
2023/04/30 13:24:47;;;;;;;;;;;18.40;99.90;;;;;;5033383;28;19925;-63
2023/04/30 13:27:18;;;;;;;;;;;18.20;99.90;;;;;;5064259;28;19932;-63
2023/04/30 13:29:50;;;;;;;;;;;18.20;99.90;;;;;;5044749;28;19932;-63
2023/04/30 13:32:22;;;;;;;;;;;18.20;99.90;;;;;;5064284;28;19925;-64
2023/04/30 13:34:54;;;;;;;;;;;18.10;99.90;;;;;;5055358;28;20343;-64
2023/04/30 13:37:26;;;;;;;;;;;18.20;99.90;;;;;;5061980;28;19985;-63
2023/04/30 13:40:00;;;;;;;;;;;18.40;99.90;;;;;;5065117;28;19935;-63
2023/04/30 13:42:26;;;;;;;;;;;18.40;99.90;;;;;;5067197;28;20292;-63
2023/04/30 13:44:58;;;;;;;;;;;18.50;99.90;;;;;;5048378;28;19924;-63
2023/04/30 13:47:30;;;;;;;;;;;18.70;99.90;;;;;;5064525;28;19936;-63
2023/04/30 13:50:02;;;;;;;;;;;18.90;99.90;;;;;;5051490;28;19960;-63
2023/04/30 13:52:29;;;;;;;;;;;18.90;99.90;;;;;;5047698;28;19948;-63
2023/04/30 13:55:01;;;;;;;;;;;19.00;99.90;;;;;;5055407;28;19928;-62
2023/04/30 13:57:31;;;;;;;;;;;19.10;99.90;;;;;;5042980;28;20588;-63
2023/04/30 13:59:58;;;;;;;;;;;19.10;99.90;;;;;;5059617;28;20316;-63
2023/04/30 14:02:33;;;;;;;;;;;19.10;99.90;;;;;;5066657;28;19925;-64
2023/04/30 14:05:05;;;;;;;;;;;19.20;99.90;;;;;;5064131;28;19963;-64
2023/04/30 14:07:37;;;;;;;;;;;19.00;99.90;;;;;;5063523;28;19935;-63
2023/04/30 14:10:09;;;;;;;;;;;18.90;99.90;;;;;;5034091;28;19925;-63
2023/04/30 14:12:40;;;;;;;;;;;18.70;99.90;;;;;;5062055;28;19932;-63
2023/04/30 14:15:12;;;;;;;;;;;18.60;99.90;;;;;;5063636;28;19978;-63
2023/04/30 14:17:44;;;;;;;;;;;18.70;99.90;;;;;;5055485;28;20359;-63
2023/04/30 14:20:15;;;;;;;;;;;18.70;99.90;;;;;;5055782;28;19974;-64
2023/04/30 14:22:47;;;;;;;;;;;18.70;99.90;;;;;;5061462;28;19978;-64
2023/04/30 14:25:19;;;;;;;;;;;18.60;99.90;;;;;;5049574;28;19978;-66
2023/04/30 14:27:50;;;;;;;;;;;18.50;99.90;;;;;;5063499;28;19932;-63
2023/04/30 14:30:22;;;;;;;;;;;18.40;99.90;;;;;;5051641;28;19973;-64
2023/04/30 14:32:54;;;;;;;;;;;18.20;99.90;;;;;;5064492;28;19924;-63
2023/04/30 14:35:21;;;;;;;;;;;18.20;99.90;;;;;;5043513;28;20451;-64
2023/04/30 14:37:53;;;;;;;;;;;18.20;99.90;;;;;;5060906;28;19928;-64
2023/04/30 14:40:20;;;;;;;;;;;18.20;99.90;;;;;;5058801;28;19932;-64
2023/04/30 14:42:51;;;;;;;;;;;18.20;99.90;;;;;;5065518;28;19974;-63
2023/04/30 14:45:23;;;;;;;;;;;18.20;99.90;;;;;;5061032;28;19925;-64